Time;durP1;ratioP1;P1;durP2;ratioP2;P2;SDS_P1;SDS_P2;PMS_P1;PMS_P2;Temp;Humidity;BMP_temperature;BMP_pressure;BME280_temperature;BME280_humidity;BME280_pressure;Samples;Min_cycle;Max_cycle;Signal;HPM_P1;HPM_P2
2022/02/21 00:00:19;;;;;;;3.20;0.80;;;;;;;10.12;61.43;99535.78;4988608;28;123869;-70
2022/02/21 00:02:49;;;;;;;4.20;1.05;;;;;;;10.13;61.53;99548.91;4989409;28;114351;-69
2022/02/21 00:05:17;;;;;;;4.45;0.93;;;;;;;10.14;61.17;99555.88;4990855;28;113608;-69
2022/02/21 00:07:46;;;;;;;6.15;0.90;;;;;;;10.14;61.04;99561.16;4987710;28;124817;-69
2022/02/21 00:10:17;;;;;;;7.75;1.33;;;;;;;10.15;60.55;99562.00;4988051;28;123783;-70
2022/02/21 00:12:45;;;;;;;9.77;1.27;;;;;;;10.14;60.71;99565.63;4988403;28;115472;-69
2022/02/21 00:15:17;;;;;;;11.27;1.45;;;;;;;10.14;60.42;99576.19;4988470;28;115517;-69
2022/02/21 00:17:45;;;;;;;6.40;1.30;;;;;;;10.14;60.42;99581.50;4989189;28;123209;-69
2022/02/21 00:20:12;;;;;;;10.32;1.63;;;;;;;10.12;59.97;99593.97;4986788;28;124591;-69
2022/02/21 00:22:39;;;;;;;7.82;1.10;;;;;;;10.12;59.82;99612.50;4988733;28;114312;-69
2022/02/21 00:25:07;;;;;;;6.78;1.65;;;;;;;10.11;59.88;99618.72;4987905;28;114246;-69
2022/02/21 00:27:34;;;;;;;10.75;1.60;;;;;;;10.10;59.21;99601.16;4987666;28;123966;-69
2022/02/21 00:30:03;;;;;;;5.57;1.35;;;;;;;10.08;59.34;99614.47;4987273;28;123662;-69
2022/02/21 00:32:31;;;;;;;7.13;1.35;;;;;;;10.07;59.24;99622.50;4988774;28;114094;-69
2022/02/21 00:34:58;;;;;;;7.30;1.55;;;;;;;10.06;58.79;99615.53;4988020;28;114103;-70
2022/02/21 00:37:25;;;;;;;7.75;1.40;;;;;;;10.06;58.99;99610.25;4987050;28;124412;-69
2022/02/21 00:39:53;;;;;;;4.28;1.45;;;;;;;10.05;58.95;99629.69;4986647;28;123878;-69
2022/02/21 00:42:24;;;;;;;7.45;1.50;;;;;;;10.04;58.90;99627.97;4988213;28;114926;-69
2022/02/21 00:44:57;;;;;;;9.43;1.23;;;;;;;10.04;58.67;99642.06;4987339;28;114191;-70
2022/02/21 00:47:27;;;;;;;10.35;1.40;;;;;;;10.06;58.91;99657.84;4987600;28;124268;-69
2022/02/21 00:49:55;;;;;;;10.80;1.80;;;;;;;10.07;58.72;99651.59;4986417;28;123849;-69
2022/02/21 00:52:23;;;;;;;10.20;1.23;;;;;;;10.07;58.57;99643.66;4988068;28;114364;-69
2022/02/21 00:54:50;;;;;;;4.28;0.98;;;;;;;10.08;58.70;99677.13;4989111;28;113279;-70
2022/02/21 00:57:17;;;;;;;7.15;1.15;;;;;;;10.10;58.30;99691.09;4987128;28;123746;-69
2022/02/21 00:59:45;;;;;;;4.50;1.02;;;;;;;10.10;58.44;99683.16;4987622;28;123549;-69
2022/02/21 01:02:12;;;;;;;6.15;1.15;;;;;;;10.11;58.29;99676.91;4990436;28;114995;-69
2022/02/21 01:04:40;;;;;;;8.30;1.33;;;;;;;10.10;58.13;99685.81;4990666;28;114721;-69
2022/02/21 01:07:07;;;;;;;7.57;1.42;;;;;;;10.11;58.30;99687.50;4992198;28;124706;-69
2022/02/21 01:09:34;;;;;;;5.18;1.30;;;;;;;10.12;58.25;99694.50;4991761;28;122895;-69
2022/02/21 01:12:02;;;;;;;5.40;1.10;;;;;;;10.11;57.83;99708.66;4989796;28;114571;-69
2022/02/21 01:14:29;;;;;;;6.55;1.40;;;;;;;10.11;57.71;99727.19;4990968;28;113976;-69
2022/02/21 01:16:56;;;;;;;8.73;1.55;;;;;;;10.10;57.79;99717.56;4991273;28;123955;-69
2022/02/21 01:19:24;;;;;;;8.57;1.48;;;;;;;10.09;57.71;99705.25;4991883;28;123794;-69
2022/02/21 01:21:51;;;;;;;7.22;1.27;;;;;;;10.07;57.32;99712.44;4991566;28;114885;-69
2022/02/21 01:24:18;;;;;;;7.25;1.38;;;;;;;10.04;57.21;99713.50;4989052;28;113904;-69
2022/02/21 01:26:45;;;;;;;6.95;1.30;;;;;;;10.03;57.36;99726.81;4990636;28;123369;-69
2022/02/21 01:29:12;;;;;;;8.55;1.40;;;;;;;10.01;57.23;99724.25;4989987;28;124366;-69
2022/02/21 01:31:39;;;;;;;10.32;1.60;;;;;;;9.97;57.01;99732.47;4991002;28;113317;-69
2022/02/21 01:34:07;;;;;;;10.20;1.73;;;;;;;9.91;57.06;99733.69;4991434;28;113053;-69
2022/02/21 01:36:34;;;;;;;15.70;1.60;;;;;;;9.85;57.08;99732.28;4979177;28;124739;-69
2022/02/21 01:39:01;;;;;;;11.50;1.75;;;;;;;9.82;56.95;99729.81;4972549;28;123764;-69
2022/02/21 01:41:28;;;;;;;8.35;1.40;;;;;;;9.79;57.00;99734.41;4969714;28;114325;-69
2022/02/21 01:44:10;;;;;;;11.57;1.50;;;;;;;9.76;57.08;99738.09;4973298;28;114366;-69
2022/02/21 01:46:38;;;;;;;7.15;1.50;;;;;;;9.74;56.99;99742.63;4969796;28;123819;-69
2022/02/21 01:49:08;;;;;;;6.80;1.60;;;;;;;9.73;57.10;99735.63;4971344;28;122717;-69
2022/02/21 01:51:35;;;;;;;12.35;1.83;;;;;;;9.70;56.82;99735.81;4968898;28;115377;-69
2022/02/21 01:54:08;;;;;;;6.40;1.75;;;;;;;9.68;57.17;99742.97;4972572;28;115083;-69
2022/02/21 01:56:36;;;;;;;10.38;1.60;;;;;;;9.68;56.96;99753.56;4969829;28;124349;-69
2022/02/21 01:59:04;;;;;;;9.55;1.70;;;;;;;9.66;56.61;99739.59;4969651;28;124255;-69
2022/02/21 02:01:32;;;;;;;6.47;1.40;;;;;;;9.65;56.64;99757.25;4969350;28;114175;-69
2022/02/21 02:04:04;;;;;;;7.30;1.23;;;;;;;9.64;56.49;99767.91;4972545;28;113827;-69
2022/02/21 02:06:31;;;;;;;8.45;1.30;;;;;;;9.63;56.74;99790.00;4969581;28;123764;-69
2022/02/21 02:08:58;;;;;;;6.03;1.10;;;;;;;9.61;56.50;99810.41;4969843;28;123734;-69
2022/02/21 02:11:26;;;;;;;6.93;1.73;;;;;;;9.54;56.20;99771.06;4968756;28;114558;-69
2022/02/21 02:13:54;;;;;;;8.88;1.73;;;;;;;9.43;56.05;99757.63;4989815;28;114344;-69
2022/02/21 02:16:21;;;;;;;12.43;1.73;;;;;;;9.33;56.33;99781.09;4990400;28;123058;-69
2022/02/21 02:18:48;;;;;;;8.63;1.70;;;;;;;9.25;56.42;99766.59;4990791;28;123755;-69
2022/02/21 02:21:26;;;;;;;10.90;1.60;;;;;;;9.18;56.50;99778.50;4989257;28;114633;-69
2022/02/21 02:23:55;;;;;;;9.50;1.90;;;;;;;9.12;56.44;99775.25;4992046;28;113733;-69
2022/02/21 02:26:22;;;;;;;9.25;1.33;;;;;;;9.07;56.25;99765.88;4991067;28;123909;-69
2022/02/21 02:28:53;;;;;;;8.88;1.30;;;;;;;9.03;56.48;99773.13;4990265;28;124171;-69
2022/02/21 02:31:20;;;;;;;7.85;1.67;;;;;;;9.01;56.42;99775.00;4991540;28;114646;-69
2022/02/21 02:33:47;;;;;;;6.50;1.55;;;;;;;8.99;56.37;99770.75;4991267;28;113336;-69
2022/02/21 02:36:14;;;;;;;5.63;1.27;;;;;;;8.97;56.27;99776.09;4988926;28;123982;-69
2022/02/21 02:38:42;;;;;;;9.07;1.70;;;;;;;8.96;56.16;99771.75;4990638;28;123995;-69
2022/02/21 02:41:09;;;;;;;6.97;1.30;;;;;;;8.95;56.28;99785.91;4987763;28;115500;-69
2022/02/21 02:43:37;;;;;;;5.40;1.38;;;;;;;8.96;56.13;99782.31;4991448;28;115681;-69
2022/02/21 02:46:05;;;;;;;7.95;1.50;;;;;;;8.97;56.23;99778.75;4988755;28;124355;-69
2022/02/21 02:48:33;;;;;;;8.65;1.40;;;;;;;8.98;56.22;99774.31;4989638;28;124298;-69
2022/02/21 02:51:00;;;;;;;7.28;1.30;;;;;;;8.99;55.91;99787.44;4989977;28;114157;-69
2022/02/21 02:53:30;;;;;;;6.75;1.30;;;;;;;9.00;56.03;99799.69;4991315;28;114740;-69
2022/02/21 02:55:57;;;;;;;8.40;1.38;;;;;;;9.02;55.77;99802.25;4988796;28;124703;-69
2022/02/21 02:58:25;;;;;;;7.32;1.42;;;;;;;9.01;55.96;99795.28;4991963;28;124405;-69
2022/02/21 03:00:52;;;;;;;9.50;1.33;;;;;;;9.01;55.65;99796.13;4990466;28;114021;-69
2022/02/21 03:03:20;;;;;;;7.40;1.40;;;;;;;9.00;55.44;99794.41;4989348;28;113919;-69
2022/02/21 03:05:47;;;;;;;9.55;1.38;;;;;;;8.99;56.03;99787.44;4988079;28;124085;-69
2022/02/21 03:08:14;;;;;;;12.13;1.23;;;;;;;9.00;55.64;99783.00;4990590;28;124605;-69
2022/02/21 03:10:41;;;;;;;5.78;1.10;;;;;;;8.99;55.86;99771.59;4988069;28;113918;-69
2022/02/21 03:13:08;;;;;;;7.57;1.00;;;;;;;8.98;55.41;99769.88;4990355;28;114295;-68
2022/02/21 03:15:35;;;;;;;11.23;1.33;;;;;;;8.99;55.51;99766.31;4989923;28;123051;-69
2022/02/21 03:18:02;;;;;;;10.38;1.30;;;;;;;8.98;55.65;99764.59;4988389;28;124720;-69
2022/02/21 03:20:30;;;;;;;8.45;1.50;;;;;;;8.99;55.13;99779.50;4989969;28;114263;-69
2022/02/21 03:22:57;;;;;;;5.82;1.60;;;;;;;8.99;55.55;99782.16;4989100;28;113137;-69
2022/02/21 03:25:24;;;;;;;6.32;1.10;;;;;;;9.00;55.34;99773.28;4990535;28;124060;-68
2022/02/21 03:27:51;;;;;;;11.40;1.60;;;;;;;9.00;55.12;99773.28;4988853;28;123712;-69
2022/02/21 03:30:18;;;;;;;6.68;1.40;;;;;;;9.00;55.11;99778.56;4987617;28;114950;-69
2022/02/21 03:32:45;;;;;;;11.55;1.20;;;;;;;9.01;55.01;99785.56;4989838;28;115564;-69
2022/02/21 03:35:14;;;;;;;5.32;1.10;;;;;;;9.04;54.52;99801.25;4988834;28;123856;-69
2022/02/21 03:37:41;;;;;;;9.32;1.27;;;;;;;9.05;55.11;99792.38;4991358;28;124811;-68
2022/02/21 03:40:09;;;;;;;8.45;1.52;;;;;;;9.05;54.82;99784.44;4988718;28;113504;-69
2022/02/21 03:42:37;;;;;;;8.00;1.55;;;;;;;9.07;54.80;99782.56;4991501;28;97413;-69
2022/02/21 03:45:06;;;;;;;7.70;1.33;;;;;;;9.09;54.17;99793.91;4987935;28;125132;-68
2022/02/21 03:47:33;;;;;;;7.22;1.45;;;;;;;9.09;54.56;99793.91;4988405;28;123767;-69
2022/02/21 03:50:01;;;;;;;7.50;1.45;;;;;;;9.10;54.45;99806.19;4987518;28;114148;-68
2022/02/21 03:52:29;;;;;;;8.52;1.23;;;;;;;9.10;54.03;99810.63;4990394;28;113903;-69
2022/02/21 03:54:56;;;;;;;10.15;1.52;;;;;;;9.10;54.11;99811.47;4987780;28;124098;-69
2022/02/21 03:57:23;;;;;;;6.68;1.60;;;;;;;9.12;54.13;99814.03;4989151;28;122799;-69
2022/02/21 03:59:51;;;;;;;9.60;1.52;;;;;;;9.13;54.13;99827.13;4988339;28;114354;-69
2022/02/21 04:02:18;;;;;;;9.00;1.65;;;;;;;9.14;54.09;99833.28;4989279;28;112964;-68
2022/02/21 04:04:45;;;;;;;8.38;1.48;;;;;;;9.14;53.81;99843.84;4986537;28;124323;-68
2022/02/21 04:07:12;;;;;;;8.30;1.42;;;;;;;9.08;53.86;99829.19;4987471;28;123982;-69
2022/02/21 04:09:39;;;;;;;11.40;1.63;;;;;;;9.00;53.92;99830.53;4988438;28;114164;-68
2022/02/21 04:12:09;;;;;;;11.45;1.52;;;;;;;8.93;54.17;99830.03;4988885;28;114335;-68
2022/02/21 04:14:36;;;;;;;5.57;1.50;;;;;;;8.89;53.99;99825.84;4987757;28;125333;-68
2022/02/21 04:17:04;;;;;;;10.57;1.60;;;;;;;8.85;54.22;99826.94;4987552;28;124545;-68
2022/02/21 04:19:31;;;;;;;6.60;1.70;;;;;;;8.82;54.11;99837.69;4987485;28;115658;-68
2022/02/21 04:21:59;;;;;;;11.82;2.13;;;;;;;8.80;54.38;99821.03;4987300;28;114930;-68
2022/02/21 04:24:26;;;;;;;7.97;1.35;;;;;;;8.79;54.34;99827.28;4989135;28;123032;-68
2022/02/21 04:26:53;;;;;;;10.10;1.30;;;;;;;8.76;53.81;99821.22;4988583;28;123646;-68
2022/02/21 04:29:20;;;;;;;9.77;1.38;;;;;;;8.75;54.01;99811.59;4988826;28;113560;-68
2022/02/21 04:31:51;;;;;;;8.63;1.30;;;;;;;8.74;54.26;99815.19;4988191;28;114067;-68
2022/02/21 04:34:18;;;;;;;8.52;1.48;;;;;;;8.75;53.91;99821.31;4987960;28;123670;-70
2022/02/21 04:36:45;;;;;;;9.63;1.50;;;;;;;8.75;54.25;99816.88;4991761;28;124159;-68
2022/02/21 04:39:12;;;;;;;8.68;1.75;;;;;;;8.75;54.01;99837.16;4992437;28;114064;-70
2022/02/21 04:41:39;;;;;;;11.55;1.48;;;;;;;8.74;54.00;99836.31;4990426;28;114300;-69
2022/02/21 04:44:07;;;;;;;5.95;1.00;;;;;;;8.75;53.80;99827.44;4993182;28;124798;-68
2022/02/21 04:46:34;;;;;;;7.30;1.55;;;;;;;8.75;53.79;99835.34;4989342;28;123951;-68
2022/02/21 04:49:01;;;;;;;7.88;1.23;;;;;;;8.76;53.85;99839.72;4990987;28;113964;-69
2022/02/21 04:51:28;;;;;;;7.82;1.30;;;;;;;8.77;53.73;99851.97;4991581;28;112820;-68
2022/02/21 04:53:55;;;;;;;8.00;1.20;;;;;;;8.77;53.96;99836.13;4993232;28;124105;-69
2022/02/21 04:56:22;;;;;;;8.60;1.50;;;;;;;8.76;53.78;99837.06;4992867;28;123885;-69
2022/02/21 04:58:49;;;;;;;9.32;1.58;;;;;;;8.76;53.50;99845.00;4991042;28;114123;-69
2022/02/21 05:01:16;;;;;;;7.10;1.60;;;;;;;8.75;53.69;99835.34;4993096;28;114386;-68
2022/02/21 05:03:45;;;;;;;7.10;1.00;;;;;;;8.74;53.76;99831.03;4992305;28;124102;-69
2022/02/21 05:06:12;;;;;;;8.88;1.58;;;;;;;8.72;53.98;99840.81;4989949;28;124925;-68
2022/02/21 05:08:40;;;;;;;5.50;1.27;;;;;;;8.70;53.50;99828.63;4992086;28;115889;-68
2022/02/21 05:11:07;;;;;;;6.05;1.33;;;;;;;8.68;53.49;99836.63;4988819;28;115073;-68
2022/02/21 05:13:39;;;;;;;5.72;1.40;;;;;;;8.66;53.67;99843.75;4992602;28;124121;-68
2022/02/21 05:16:06;;;;;;;8.25;1.33;;;;;;;8.66;53.70;99853.47;4990656;28;124601;-68
2022/02/21 05:18:33;;;;;;;10.07;1.70;;;;;;;8.65;53.87;99852.63;4990479;28;114578;-69
2022/02/21 05:21:01;;;;;;;8.20;1.30;;;;;;;8.64;53.47;99840.34;4991306;28;113887;-68
2022/02/21 05:23:28;;;;;;;8.98;1.20;;;;;;;8.65;53.49;99847.34;4992150;28;124477;-68
2022/02/21 05:25:55;;;;;;;6.85;1.20;;;;;;;8.64;53.42;99845.63;4990628;28;124149;-69
2022/02/21 05:28:22;;;;;;;6.07;1.20;;;;;;;8.63;53.32;99843.94;4991636;28;113237;-69
2022/02/21 05:30:49;;;;;;;6.70;1.02;;;;;;;8.63;53.21;99836.03;4989984;28;113804;-68
2022/02/21 05:33:16;;;;;;;9.05;1.60;;;;;;;8.63;53.31;99833.38;4991201;28;123710;-69
2022/02/21 05:35:43;;;;;;;6.53;1.60;;;;;;;8.62;53.09;99836.94;4990282;28;124656;-69
2022/02/21 05:38:12;;;;;;;4.30;1.17;;;;;;;8.62;53.46;99831.66;4990445;28;114661;-69
2022/02/21 05:40:39;;;;;;;5.68;1.10;;;;;;;8.62;53.50;99836.94;4989783;28;114187;-69
2022/02/21 05:43:06;;;;;;;8.95;1.45;;;;;;;8.63;53.40;99832.53;4992681;28;124489;-69
2022/02/21 05:45:33;;;;;;;5.72;1.10;;;;;;;8.64;53.48;99834.22;4990083;28;123543;-69
2022/02/21 05:48:00;;;;;;;6.90;1.50;;;;;;;8.64;53.38;99829.78;4990146;28;114348;-69
2022/02/21 05:50:27;;;;;;;5.97;1.52;;;;;;;8.65;53.34;99831.50;4990360;28;114436;-69
2022/02/21 05:52:54;;;;;;;9.13;1.35;;;;;;;8.65;53.10;99823.59;4990924;28;123826;-69
2022/02/21 05:55:21;;;;;;;9.02;1.30;;;;;;;8.67;53.19;99829.63;4990981;28;122843;-69
2022/02/21 05:57:48;;;;;;;9.75;1.38;;;;;;;8.69;53.08;99827.78;4990124;28;115143;-69
2022/02/21 06:00:16;;;;;;;5.53;1.23;;;;;;;8.69;52.89;99832.22;4990614;28;114971;-69
2022/02/21 06:02:43;;;;;;;7.07;1.38;;;;;;;8.69;52.77;99838.34;4990695;28;124530;-69
2022/02/21 06:05:10;;;;;;;6.40;1.25;;;;;;;8.71;53.09;99847.03;4991528;28;123798;-69
2022/02/21 06:07:37;;;;;;;10.32;1.45;;;;;;;8.71;53.08;99831.19;4991047;28;113233;-69
2022/02/21 06:10:04;;;;;;;9.73;1.63;;;;;;;8.72;52.96;99827.63;4989199;28;114472;-69
2022/02/21 06:12:32;;;;;;;6.07;1.63;;;;;;;8.73;53.03;99821.38;4990188;28;124063;-69
2022/02/21 06:14:59;;;;;;;6.38;1.13;;;;;;;8.75;52.72;99822.16;4989497;28;123774;-69
2022/02/21 06:17:26;;;;;;;10.48;1.92;;;;;;;8.76;52.78;99818.59;4989757;28;114295;-69
2022/02/21 06:19:53;;;;;;;12.27;1.70;;;;;;;8.77;52.67;99825.56;4989179;28;114580;-69
2022/02/21 06:22:21;;;;;;;8.63;1.48;;;;;;;8.80;53.07;99836.88;4988068;28;123754;-69
2022/02/21 06:24:48;;;;;;;7.57;1.70;;;;;;;8.81;52.84;99846.53;4992066;28;123882;-69
2022/02/21 06:27:16;;;;;;;10.90;1.67;;;;;;;8.80;52.61;99823.69;4990298;28;114209;-69
2022/02/21 06:29:48;;;;;;;11.68;1.92;;;;;;;8.81;52.66;99835.97;4990057;28;113932;-69
2022/02/21 06:32:15;;;;;;;5.88;1.20;;;;;;;8.81;52.90;99830.69;4989305;28;123970;-69
2022/02/21 06:34:42;;;;;;;6.95;1.45;;;;;;;8.81;52.83;99830.69;4988418;28;124511;-69
2022/02/21 06:37:09;;;;;;;9.77;1.52;;;;;;;8.80;52.82;99829.84;4989420;28;114618;-69
2022/02/21 06:39:37;;;;;;;9.32;1.50;;;;;;;8.82;52.77;99837.69;4988868;28;114007;-70
2022/02/21 06:42:07;;;;;;;7.93;1.50;;;;;;;8.83;52.92;99832.28;4988902;28;124022;-69
2022/02/21 06:44:34;;;;;;;9.07;1.52;;;;;;;8.84;52.54;99835.81;4989977;28;124046;-69
2022/02/21 06:47:02;;;;;;;8.50;1.40;;;;;;;8.83;52.38;99839.38;4990074;28;115004;-70
2022/02/21 06:49:29;;;;;;;10.23;1.73;;;;;;;8.83;52.55;99844.66;4992864;28;114649;-69
2022/02/21 06:51:56;;;;;;;6.95;1.33;;;;;;;8.82;52.75;99842.97;4989294;28;124065;-69
2022/02/21 06:54:23;;;;;;;6.82;1.42;;;;;;;8.84;52.44;99851.66;4990645;28;124541;-69
2022/02/21 06:56:51;;;;;;;7.68;1.30;;;;;;;8.83;52.61;99836.72;4991804;28;114408;-69
2022/02/21 06:59:18;;;;;;;7.05;1.23;;;;;;;8.82;52.26;99832.41;4990768;28;113708;-69
2022/02/21 07:01:45;;;;;;;9.73;1.70;;;;;;;8.81;52.50;99826.25;4989195;28;124480;-69
2022/02/21 07:04:13;;;;;;;7.10;1.52;;;;;;;8.83;52.57;99823.53;4993135;28;123738;-69
2022/02/21 07:06:40;;;;;;;7.85;1.52;;;;;;;8.84;52.57;99833.16;4992074;28;113029;-69
2022/02/21 07:09:09;;;;;;;8.73;1.33;;;;;;;8.85;52.45;99816.38;4990330;28;114051;-69
2022/02/21 07:11:36;;;;;;;12.85;1.38;;;;;;;8.85;52.17;99822.50;4989786;28;123355;-69
2022/02/21 07:14:03;;;;;;;8.73;1.42;;;;;;;8.87;52.58;99830.34;5007634;28;123072;-69
2022/02/21 07:16:31;;;;;;;5.60;1.23;;;;;;;8.88;52.15;99829.44;4992724;28;114766;-69
2022/02/21 07:18:58;;;;;;;8.52;1.48;;;;;;;8.91;52.26;99837.16;4989778;28;113987;-69
2022/02/21 07:21:25;;;;;;;7.75;1.38;;;;;;;8.91;52.48;99837.16;4989578;28;123982;-70
2022/02/21 07:23:53;;;;;;;11.75;1.38;;;;;;;8.91;52.47;99829.25;4991978;28;125356;-69
2022/02/21 07:26:20;;;;;;;4.57;1.33;;;;;;;8.89;52.32;99834.63;4989933;28;114276;-69
2022/02/21 07:28:48;;;;;;;4.03;1.60;;;;;;;8.88;52.29;99827.63;4990260;28;114374;-69
2022/02/21 07:31:15;;;;;;;12.40;1.40;;;;;;;8.88;52.46;99827.63;4991030;28;124810;-69
2022/02/21 07:33:47;;;;;;;7.75;1.40;;;;;;;8.88;52.34;99821.50;4991647;28;123992;-69
2022/02/21 07:36:14;;;;;;;9.88;1.33;;;;;;;8.88;52.26;99824.16;4990191;28;115555;-69
2022/02/21 07:38:41;;;;;;;9.75;1.60;;;;;;;8.88;52.49;99824.16;4988353;28;115384;-69
2022/02/21 07:41:08;;;;;;;10.45;1.23;;;;;;;8.87;52.31;99809.22;4989387;28;124291;-69
2022/02/21 07:43:41;;;;;;;6.05;1.42;;;;;;;8.86;52.47;99807.53;4991577;28;123901;-69
2022/02/21 07:46:09;;;;;;;4.45;1.10;;;;;;;8.87;52.55;99803.94;4990407;28;114075;-69
2022/02/21 07:48:39;;;;;;;5.07;1.13;;;;;;;8.88;52.36;99805.66;4989633;28;113733;-69
2022/02/21 07:51:06;;;;;;;9.35;1.23;;;;;;;8.90;53.09;99799.34;4988346;28;124038;-69
2022/02/21 07:53:35;;;;;;;5.43;1.20;;;;;;;8.94;52.77;99805.31;4990562;28;123627;-69
2022/02/21 07:56:02;;;;;;;10.07;1.60;;;;;;;8.95;52.69;99807.03;4989341;28;114633;-69
2022/02/21 07:58:29;;;;;;;8.80;1.27;;;;;;;8.98;52.34;99806.84;4992288;28;115184;-69
2022/02/21 08:00:56;;;;;;;5.45;1.40;;;;;;;9.00;52.37;99804.13;4990370;28;124473;-69
2022/02/21 08:03:25;;;;;;;5.90;1.38;;;;;;;9.00;52.56;99804.13;4991051;28;124723;-69
2022/02/21 08:05:55;;;;;;;5.85;1.40;;;;;;;9.00;52.71;99802.31;4990902;28;113531;-69
2022/02/21 08:08:25;;;;;;;6.05;1.10;;;;;;;9.01;52.42;99796.13;4989472;28;113774;-69
2022/02/21 08:10:52;;;;;;;7.97;1.25;;;;;;;9.04;52.38;99784.53;4992677;28;122703;-69
2022/02/21 08:13:19;;;;;;;6.68;1.42;;;;;;;9.06;52.43;99794.09;4993768;28;123410;-69
2022/02/21 08:15:46;;;;;;;7.75;1.30;;;;;;;9.09;52.64;99788.63;4992864;28;115045;-69
2022/02/21 08:18:14;;;;;;;6.63;1.20;;;;;;;9.12;52.27;99785.81;4994820;28;112938;-69
2022/02/21 08:20:41;;;;;;;4.88;1.30;;;;;;;9.15;52.28;99783.00;4992929;28;124311;-70
2022/02/21 08:23:08;;;;;;;7.57;1.00;;;;;;;9.18;52.34;99770.56;4993628;28;124243;-69
2022/02/21 08:25:35;;;;;;;8.27;1.30;;;;;;;9.19;52.49;99769.59;4994791;28;115425;-69
2022/02/21 08:28:03;;;;;;;6.13;1.20;;;;;;;9.19;52.50;99766.97;4991979;28;115277;-69
2022/02/21 08:30:30;;;;;;;7.20;1.73;;;;;;;9.21;52.27;99765.09;4991798;28;124294;-69
2022/02/21 08:32:57;;;;;;;7.57;1.40;;;;;;;9.22;52.57;99756.22;4993374;28;122722;-69
2022/02/21 08:35:25;;;;;;;6.55;1.17;;;;;;;9.25;52.25;99761.31;4993087;28;114425;-69
2022/02/21 08:37:53;;;;;;;9.10;1.50;;;;;;;9.26;52.34;99763.03;4994275;28;112694;-69
2022/02/21 08:40:22;;;;;;;7.25;1.38;;;;;;;9.29;52.29;99749.66;4992055;28;123884;-70
2022/02/21 08:42:49;;;;;;;10.50;1.50;;;;;;;9.31;52.46;99750.44;4992621;28;123805;-69
2022/02/21 08:45:16;;;;;;;7.55;1.45;;;;;;;9.34;52.33;99747.59;4991056;28;114953;-69
2022/02/21 08:47:43;;;;;;;8.13;1.30;;;;;;;9.38;52.37;99729.78;4992265;28;113744;-69
2022/02/21 08:50:11;;;;;;;7.53;1.42;;;;;;;9.44;52.69;99717.06;4990839;28;123560;-69
2022/02/21 08:52:40;;;;;;;7.40;1.38;;;;;;;9.52;52.62;99711.31;4992784;28;124205;-69
2022/02/21 08:55:09;;;;;;;8.95;1.08;;;;;;;9.60;52.54;99732.03;4992313;28;114096;-69
2022/02/21 08:57:38;;;;;;;6.07;1.60;;;;;;;9.66;52.56;99713.13;4991108;28;113738;-69
2022/02/21 09:00:07;;;;;;;6.00;1.25;;;;;;;9.71;52.62;99711.09;4992478;28;124256;-69
2022/02/21 09:02:34;;;;;;;5.32;0.88;;;;;;;9.72;52.31;99715.44;4992750;28;124906;-69
2022/02/21 09:05:25;;;;;;;5.68;1.10;;;;;;;9.70;52.14;99719.94;4992094;28;114144;-69
2022/02/21 09:07:53;;;;;;;5.63;0.90;;;;;;;9.68;52.39;99712.13;4994079;28;112939;-69
2022/02/21 09:10:20;;;;;;;9.10;1.33;;;;;;;9.68;51.90;99690.09;4992277;28;124001;-70
2022/02/21 09:12:47;;;;;;;5.65;0.90;;;;;;;9.66;52.32;99707.84;4993189;28;124564;-69
2022/02/21 09:15:19;;;;;;;11.00;1.15;;;;;;;9.62;52.22;99695.75;4991128;28;114957;-69
2022/02/21 09:17:46;;;;;;;8.35;1.50;;;;;;;9.58;52.19;99683.69;4994952;28;115755;-69
2022/02/21 09:20:15;;;;;;;8.02;1.30;;;;;;;9.53;51.90;99698.03;4991328;28;123492;-69
2022/02/21 09:22:43;;;;;;;6.95;1.30;;;;;;;9.47;52.11;99671.94;4991873;28;124285;-69
2022/02/21 09:25:11;;;;;;;8.57;1.35;;;;;;;9.41;51.89;99682.88;4991532;28;114313;-69
2022/02/21 09:27:38;;;;;;;9.10;1.75;;;;;;;9.34;52.24;99677.13;4991151;28;114057;-69
2022/02/21 09:30:07;;;;;;;7.68;1.13;;;;;;;9.30;52.35;99690.59;4989644;28;124325;-69
2022/02/21 09:32:34;;;;;;;4.82;1.08;;;;;;;9.26;52.19;99668.78;4992618;28;124775;-69
2022/02/21 09:35:02;;;;;;;7.07;1.30;;;;;;;9.22;52.48;99671.69;4992725;28;114375;-69
2022/02/21 09:37:32;;;;;;;5.63;1.58;;;;;;;9.18;52.62;99665.75;4991806;28;113624;-70
2022/02/21 09:39:59;;;;;;;8.10;1.63;;;;;;;9.14;52.33;99658.94;4991140;28;124583;-70
2022/02/21 09:42:31;;;;;;;7.47;1.30;;;;;;;9.10;52.32;99637.13;4991879;28;123857;-69
2022/02/21 09:44:59;;;;;;;4.72;1.38;;;;;;;9.04;52.62;99647.19;4991458;28;114099;-69
2022/02/21 09:47:27;;;;;;;6.97;1.50;;;;;;;8.98;52.76;99680.09;4992322;28;113996;-69
2022/02/21 09:49:55;;;;;;;9.35;1.65;;;;;;;8.92;52.96;99659.31;4992185;28;123887;-70
2022/02/21 09:52:22;;;;;;;6.55;1.38;;;;;;;8.84;53.18;99662.41;4992922;28;124204;-70
2022/02/21 09:54:50;;;;;;;6.90;1.05;;;;;;;8.79;53.21;99658.31;4991401;28;114627;-69
2022/02/21 09:57:17;;;;;;;6.20;1.45;;;;;;;8.71;53.13;99646.41;4991752;28;113868;-70
2022/02/21 09:59:44;;;;;;;9.40;1.55;;;;;;;8.66;53.38;99637.88;4989963;28;123828;-69
2022/02/21 10:02:19;;;;;;;5.25;1.23;;;;;;;8.59;53.71;99631.28;4990148;28;123764;-70
2022/02/21 10:04:46;;;;;;;5.70;1.40;;;;;;;8.55;53.81;99645.56;4990505;28;115559;-70
2022/02/21 10:07:26;;;;;;;7.50;1.40;;;;;;;8.53;54.00;99644.78;4991252;28;115093;-70
2022/02/21 10:09:59;;;;;;;7.03;1.73;;;;;;;8.51;54.19;99628.19;4989950;28;124385;-70
2022/02/21 10:12:28;;;;;;;7.90;1.80;;;;;;;8.49;54.38;99630.91;4992034;28;123306;-70
2022/02/21 10:14:55;;;;;;;7.53;1.20;;;;;;;8.47;54.49;99647.78;4992288;28;114634;-70
2022/02/21 10:17:24;;;;;;;4.28;1.48;;;;;;;8.45;54.41;99618.84;4991858;28;114042;-70
2022/02/21 10:20:04;;;;;;;9.95;1.88;;;;;;;8.43;54.65;99635.69;4992661;28;123729;-70
2022/02/21 10:22:32;;;;;;;6.53;1.35;;;;;;;8.41;54.79;99621.72;4991779;28;123201;-69
2022/02/21 10:25:01;;;;;;;8.18;1.40;;;;;;;8.39;54.95;99625.28;4992336;28;114282;-70
2022/02/21 10:27:30;;;;;;;11.20;1.60;;;;;;;8.36;55.10;99625.47;4992515;28;114765;-70
2022/02/21 10:30:01;;;;;;;11.23;1.70;;;;;;;8.35;55.03;99618.47;4991409;28;124657;-70
2022/02/21 10:32:50;;;;;;;5.20;1.45;;;;;;;8.33;54.93;99609.78;4991286;28;123687;-70
2022/02/21 10:35:22;;;;;;;4.90;1.40;;;;;;;8.33;55.00;99625.63;4990772;28;114144;-70
2022/02/21 10:37:55;;;;;;;8.48;2.00;;;;;;;8.32;55.13;99608.06;4992457;28;114636;-70
2022/02/21 10:40:37;;;;;;;6.25;1.20;;;;;;;8.30;55.69;99604.69;5007396;28;123276;-70
2022/02/21 10:43:14;;;;;;;6.93;1.65;;;;;;;8.31;55.61;99616.94;4991343;28;123246;-70
2022/02/21 10:45:42;;;;;;;5.53;1.50;;;;;;;8.33;55.58;99620.34;4989435;28;114169;-70
2022/02/21 10:48:20;;;;;;;12.98;1.85;;;;;;;8.31;55.61;99622.22;4992485;28;114331;-70
2022/02/21 10:50:58;;;;;;;10.60;1.52;;;;;;;8.31;55.69;99616.94;4991175;28;123257;-70
2022/02/21 10:53:53;;;;;;;9.15;1.67;;;;;;;8.32;55.72;99628.34;4992893;28;124919;-70
2022/02/21 10:56:21;;;;;;;8.13;1.60;;;;;;;8.31;55.84;99627.50;4990171;28;115937;-70
2022/02/21 10:58:50;;;;;;;9.48;1.40;;;;;;;8.31;56.11;99638.03;4990458;28;115450;-70
2022/02/21 11:01:17;;;;;;;6.88;1.55;;;;;;;8.30;56.23;99620.50;4991559;28;123667;-71
2022/02/21 11:03:47;;;;;;;8.00;1.67;;;;;;;8.30;56.40;99633.69;4992817;28;124836;-71
2022/02/21 11:06:16;;;;;;;8.38;1.60;;;;;;;8.31;56.30;99627.50;4989378;28;114708;-71
2022/02/21 11:08:43;;;;;;;8.00;1.65;;;;;;;8.31;56.42;99624.84;4991454;28;113949;-71
2022/02/21 11:11:11;;;;;;;10.30;2.00;;;;;;;8.30;56.77;99631.06;4989613;28;124978;-71
2022/02/21 11:13:44;;;;;;;8.70;1.90;;;;;;;8.31;56.55;99624.00;4992669;28;124117;-71
2022/02/21 11:16:11;;;;;;;9.80;1.60;;;;;;;8.32;56.41;99601.97;4993472;28;114332;-71
2022/02/21 11:18:40;;;;;;;9.80;1.70;;;;;;;8.31;56.69;99595.84;4992315;28;112888;-71
2022/02/21 11:21:09;;;;;;;4.30;1.70;;;;;;;8.31;56.42;99619.59;4989143;28;125184;-72
2022/02/21 11:23:37;;;;;;;7.60;1.80;;;;;;;8.31;56.96;99595.84;4992351;28;124056;-71
2022/02/21 11:26:13;;;;;;;7.18;1.52;;;;;;;8.33;57.10;99599.25;4990521;28;114890;-71
2022/02/21 11:29:00;;;;;;;9.68;2.05;;;;;;;8.36;57.01;99599.09;4990214;28;114001;-71
2022/02/21 11:31:40;;;;;;;8.82;2.00;;;;;;;8.37;57.22;99600.75;4989543;28;125398;-71
2022/02/21 11:34:09;;;;;;;9.07;1.70;;;;;;;8.38;56.83;99602.47;4991247;28;122956;-72
2022/02/21 11:36:39;;;;;;;5.40;1.70;;;;;;;8.42;57.00;99589.13;4992284;28;114432;-72